Terminal Aerodrome Forecast
Issued by NWS Shreveport, LA

Home | Current Version | Previous Version | Text Only | Print | Product List | Glossary On
Versions: 1 2 3 4 5 6 7 8 9 10 11 12 13 14 15 16 17 18 19 20 21 22 23
230
FTUS44 KSHV 221139
TAFLFK
TAF
KLFK 221139Z 2212/2312 06006KT P6SM OVC007
      TEMPO 2213/2215 SCT015
     FM221500 09007KT P6SM BKN015
      TEMPO 2215/2217 SCT025
     FM221800 10008KT P6SM SCT040 BKN250
     FM230000 10005KT P6SM SCT040 SCT250
      TEMPO 2308/2312 BKN015=

USA.gov is the U.S. government's official web portal to all federal, state and local government web resources and services.